Ana Sayfa
METAR-TAF:

METAR-TAF

Havaalanları :

Rodos Diagoras Uluslararası Havalimanı

Rodos, Yunanistan

Enlem: 36-24N, Boylam: 028-05E, yükseklik: 4 m

Güncel hava durumu gözlemi

Rapor saat 17:20 UTC de 35 dakika önce yapıldı.
Rüzgar batı/güneybatıdan 15 kt
Sıcaklık 27°C
Nem 66%
Basınç 1005 hPa
Görüş mesafesi 10 km veya daha fazla
1500 m altında bulut yok ve kümülonimbus yok

METAR: LGRP 181720Z 24015KT CAVOK 27/20 Q1005 NOSIG

Saat: 20:55 (17:55 UTC)

Tahmin

Rapor saat 17:00 UTC de 55 dakika önce yapıldı.
Ayın 18'si saat 18 UTC'den ayın 19'si saat 18 UTC'ye kadar geçerli Tahmin
Rüzgar batı/güneybatıdan 20 kt
Görüş mesafesi 10 km veya daha fazla
2000 ft yükseklikte az bulutlu
Dönüşüyor
ayın 19'si saat 01 UTC'den ayın 19'si saat 03 UTC'ye kadar
Rüzgar batı/güneybatıdan 10 kt

TAF: LGRP 181700Z 1818/1918 25020KT 9999 FEW020 BECMG 1901/1903 25010KT

4.000'den fazla havaalanı için hava durumu gözlemleri ve tahminleri (METAR ve TAF raporları).

Kullanılabilir istasyonlar harita üzerinde sarı ve kırmızı noktalarla gösterilir.

İstasyonun adını görmek için fareyi noktanın üzerinde gezdirin.

Sonrasında hava gözlem ve tahminlerini görmek için tıklayın.

Haritayı değiştirmek için: yaklaştırmak için siyah artı işaretli yeşil düğmeye ve uzaklaştırmak için de eksi işaretli düğmeye hızla tıklayın; bitişik haritalar için yeşil okları kullanın.


METAR-TAF: